createdAt,value
2018-08-28T12:37:35.405Z,30.20
2018-08-28T12:38:35.156Z,30.19
2018-08-28T12:39:35.090Z,30.17
2018-08-28T12:40:35.037Z,30.08
2018-08-28T12:41:34.976Z,30.24
2018-08-28T12:42:34.907Z,30.20
2018-08-28T12:43:34.839Z,30.24
2018-08-28T12:44:34.767Z,30.19
2018-08-28T12:45:34.709Z,30.24
2018-08-28T12:46:34.644Z,30.20
2018-08-28T12:47:34.600Z,30.24
2018-08-28T12:48:34.531Z,30.35
2018-08-28T12:49:34.469Z,30.27
2018-08-28T12:50:34.416Z,30.27
2018-08-28T12:51:34.339Z,30.29
2018-08-28T12:52:34.287Z,30.29
2018-08-28T12:53:34.220Z,30.31
2018-08-28T12:54:34.167Z,30.20
2018-08-28T12:55:34.106Z,30.29
2018-08-28T12:56:34.035Z,30.35
2018-08-28T12:57:33.990Z,30.38
2018-08-28T12:58:33.921Z,30.46
2018-08-28T12:59:33.865Z,30.42
2018-08-28T13:00:33.877Z,30.47
2018-08-28T13:01:33.732Z,30.47
2018-08-28T13:02:33.795Z,30.43
2018-08-28T13:03:33.613Z,30.55
2018-08-28T13:04:33.563Z,30.53
2018-08-28T13:05:33.503Z,30.51
2018-08-28T13:06:33.446Z,30.55
2018-08-28T13:07:33.414Z,30.51
2018-08-28T13:08:33.332Z,30.49
2018-08-28T13:09:33.270Z,30.53
2018-08-28T13:10:33.213Z,30.53
2018-08-28T13:11:33.153Z,30.46
2018-08-28T13:12:33.090Z,30.57
2018-08-28T13:13:33.045Z,30.53
2018-08-28T13:14:33.091Z,30.60
2018-08-28T13:15:32.926Z,30.55
2018-08-28T13:16:32.873Z,30.64
2018-08-28T13:17:32.805Z,30.65
2018-08-28T13:18:32.745Z,30.70
2018-08-28T13:19:32.683Z,30.77
2018-08-28T13:20:32.637Z,30.76
2018-08-28T13:21:32.558Z,30.82
2018-08-28T13:22:32.511Z,30.80
2018-08-28T13:23:32.449Z,30.77
2018-08-28T13:24:32.404Z,30.73
2018-08-28T13:25:32.423Z,30.64
2018-08-28T13:26:32.267Z,30.70
2018-08-28T13:27:32.208Z,30.75
2018-08-28T13:28:32.161Z,30.76
2018-08-28T13:29:32.107Z,30.98
2018-08-28T13:30:32.045Z,30.94
2018-08-28T13:31:32.145Z,31.01
2018-08-28T13:32:31.915Z,30.94
2018-08-28T13:33:31.859Z,31.07
2018-08-28T13:34:31.807Z,31.06
2018-08-28T13:35:31.742Z,31.14
2018-08-28T13:36:31.706Z,31.17
2018-08-28T13:37:31.640Z,31.19
2018-08-28T13:38:31.573Z,31.13
2018-08-28T13:39:31.529Z,31.12
2018-08-28T13:40:31.519Z,31.06
2018-08-28T13:41:31.409Z,30.88
2018-08-28T13:42:31.555Z,30.99
2018-08-28T13:43:31.289Z,30.95
2018-08-28T13:44:31.226Z,31.01
2018-08-28T13:45:31.183Z,30.97
2018-08-28T13:46:31.159Z,31.09
2018-08-28T13:47:31.044Z,31.02
2018-08-28T13:48:31.004Z,30.95
2018-08-28T13:49:30.941Z,30.97
2018-08-28T13:50:30.894Z,30.98
2018-08-28T13:51:30.829Z,31.04
2018-08-28T13:52:30.779Z,31.07
2018-08-28T13:53:30.707Z,31.04
2018-08-28T13:54:30.820Z,31.12
2018-08-28T13:55:30.597Z,31.21
2018-08-28T13:56:30.546Z,31.23
2018-08-28T13:57:30.477Z,31.20
2018-08-28T13:58:30.747Z,31.25
2018-08-28T13:59:30.356Z,31.09
2018-08-28T14:00:30.301Z,31.06
2018-08-28T14:01:30.242Z,31.12
2018-08-28T14:02:30.233Z,31.16
2018-08-28T14:03:30.119Z,31.23
2018-08-28T14:04:30.077Z,31.07
2018-08-28T14:05:30.019Z,31.10
2018-08-28T14:06:29.970Z,31.09
2018-08-28T14:07:29.898Z,31.20
2018-08-28T14:08:29.825Z,31.19
2018-08-28T18:22:56.126Z,28.27
2018-08-28T18:23:56.017Z,28.24
2018-08-28T18:25:52.203Z,28.19
2018-08-28T18:26:52.054Z,28.21
2018-08-28T18:28:47.385Z,28.14
2018-08-28T18:29:47.214Z,28.06
2018-08-28T18:31:42.539Z,28.00
2018-08-28T18:32:42.400Z,28.04
2018-08-28T18:34:37.753Z,27.96
2018-08-28T18:35:37.721Z,27.94
2018-08-28T18:37:32.891Z,27.75
2018-08-28T18:38:32.787Z,27.67
2018-08-28T18:40:28.077Z,27.44
2018-08-28T18:41:28.093Z,27.12
2018-08-28T18:43:23.280Z,26.88
2018-08-28T18:44:23.198Z,26.81
2018-08-28T18:46:18.537Z,26.66
2018-08-28T18:47:18.395Z,26.58
2018-08-28T18:49:14.538Z,26.58
2018-08-28T18:50:14.444Z,26.37
2018-08-28T18:52:09.876Z,26.13
2018-08-28T18:53:09.702Z,26.09
2018-08-28T18:55:04.982Z,25.98
2018-08-28T18:56:04.930Z,25.92
2018-08-28T18:58:00.145Z,25.92
2018-08-28T18:59:00.073Z,25.92
2018-08-28T19:00:55.375Z,25.99
2018-08-28T19:01:55.266Z,25.83
2018-08-28T19:03:50.551Z,25.85
2018-08-28T19:04:50.465Z,25.79
2018-08-28T19:06:45.785Z,25.91
2018-08-28T19:07:45.713Z,25.94
2018-08-28T19:09:40.957Z,25.97
2018-08-28T19:10:40.871Z,26.02
2018-08-28T19:12:36.195Z,26.02
2018-08-28T19:13:36.079Z,26.06
2018-08-28T19:15:31.379Z,26.26
2018-08-28T19:16:31.298Z,26.09
2018-08-28T19:18:27.427Z,26.05
2018-08-28T19:19:27.330Z,26.02
2018-08-28T19:21:22.596Z,25.99
2018-08-28T19:22:22.522Z,26.05
2018-08-28T19:24:18.672Z,26.01
2018-08-28T19:25:18.566Z,25.90
2018-08-28T19:27:13.881Z,25.76
2018-08-28T19:28:13.748Z,25.69
2018-08-28T19:30:09.137Z,25.67
2018-08-28T19:31:08.991Z,25.75
2018-08-28T19:33:04.260Z,25.77
2018-08-28T19:34:04.159Z,25.87
2018-08-28T19:35:59.444Z,25.90
2018-08-28T19:36:59.373Z,25.88
2018-08-28T19:38:55.571Z,25.92
2018-08-28T19:39:55.464Z,25.77
2018-08-28T19:41:51.856Z,25.79
2018-08-28T19:42:51.479Z,25.76
2018-08-28T19:44:46.763Z,25.67
2018-08-28T19:45:46.677Z,25.67
2018-08-28T19:47:41.997Z,25.65
2018-08-28T19:48:41.888Z,25.60
2018-08-28T19:50:37.203Z,25.46
2018-08-28T19:51:37.113Z,25.51
2018-08-28T19:53:32.507Z,25.52
2018-08-28T19:54:32.296Z,25.45
2018-08-28T19:56:28.478Z,25.50
2018-08-28T19:57:28.383Z,25.46
2018-08-28T19:59:23.798Z,25.51
2018-08-28T20:00:23.599Z,25.51
2018-08-28T20:02:18.896Z,25.50
2018-08-28T20:03:18.806Z,25.50
2018-08-28T20:05:14.086Z,25.50
2018-08-28T20:06:14.016Z,25.47
2018-08-28T20:08:09.330Z,25.54
2018-08-28T20:09:09.198Z,25.52
2018-08-28T20:11:04.497Z,25.70
2018-08-28T20:12:04.410Z,25.58
2018-08-28T20:13:59.733Z,25.62
2018-08-28T20:14:59.627Z,25.62
2018-08-28T20:16:54.954Z,25.61
2018-08-28T20:17:54.863Z,25.62
2018-08-28T20:19:50.170Z,25.61
2018-08-28T20:20:50.122Z,25.60
2018-08-28T20:22:45.326Z,25.40
2018-08-28T20:23:45.272Z,25.50
2018-08-28T20:25:40.572Z,25.35
2018-08-28T20:26:40.451Z,25.28
2018-08-28T20:28:35.725Z,25.27
2018-08-28T20:29:35.670Z,25.24
2018-08-28T20:31:30.972Z,25.32
2018-08-28T20:32:30.866Z,25.25
2018-08-28T20:34:26.151Z,25.33
2018-08-28T20:35:26.070Z,25.28
2018-08-28T20:37:21.445Z,25.28
2018-08-28T20:38:21.464Z,25.20
2018-08-28T20:40:16.541Z,25.32
2018-08-28T20:41:16.469Z,25.27
2018-08-28T20:43:11.785Z,25.36
2018-08-28T20:44:11.664Z,25.28
2018-08-28T20:46:06.943Z,25.36
2018-08-28T20:47:06.864Z,25.45
2018-08-28T20:49:02.195Z,25.33
2018-08-28T20:50:02.072Z,25.35
2018-08-28T20:51:57.376Z,25.33
2018-08-28T20:52:57.284Z,25.28
2018-08-28T20:54:52.565Z,25.39
2018-08-28T20:55:52.483Z,25.36
2018-08-28T20:57:47.820Z,25.42
2018-08-28T20:58:47.678Z,25.38
2018-08-28T21:00:42.972Z,25.38
2018-08-28T21:01:42.881Z,25.39
2018-08-28T21:03:38.199Z,25.35
2018-08-28T21:04:38.089Z,25.28
2018-08-28T21:06:33.371Z,24.84
2018-08-28T21:07:33.288Z,24.65
2018-08-28T21:09:28.580Z,24.67
2018-08-28T21:10:28.489Z,24.77
2018-08-28T21:12:23.766Z,24.93
2018-08-28T21:13:23.699Z,24.88
2018-08-28T21:15:19.922Z,25.21
2018-08-28T21:16:19.725Z,25.18
2018-08-28T21:18:14.992Z,25.18
2018-08-28T21:19:14.944Z,24.95
2018-08-28T21:21:10.263Z,24.81
2018-08-28T21:22:10.185Z,24.84
2018-08-28T21:24:05.456Z,24.73
2018-08-28T21:25:05.378Z,24.77
2018-08-28T21:27:00.674Z,24.77
2018-08-28T21:28:00.564Z,24.60
2018-08-28T21:29:55.885Z,24.71
2018-08-28T21:30:55.800Z,24.80
2018-08-28T21:32:51.908Z,24.87
2018-08-28T21:33:51.822Z,24.87
2018-08-28T21:35:47.359Z,24.98
2018-08-28T21:36:47.048Z,24.90
2018-08-28T21:38:42.459Z,24.98
2018-08-28T21:39:42.242Z,24.93
2018-08-28T21:41:37.561Z,25.08
2018-08-28T21:42:37.439Z,25.10
2018-08-28T21:44:32.765Z,25.09
2018-08-28T21:45:32.639Z,25.05
2018-08-28T21:47:27.924Z,25.02
2018-08-28T21:48:27.841Z,25.13
2018-08-28T21:50:23.165Z,25.17
2018-08-28T21:51:23.057Z,25.17
2018-08-28T21:53:18.374Z,25.28
2018-08-28T21:54:18.254Z,25.24
2018-08-28T21:56:13.551Z,25.36
2018-08-28T21:57:13.465Z,25.36
2018-08-28T21:59:08.772Z,25.25
2018-08-28T22:00:08.680Z,25.25
2018-08-28T22:02:03.980Z,25.02
2018-08-28T22:03:03.862Z,24.99
2018-08-28T22:04:59.275Z,25.06
2018-08-28T22:05:59.066Z,25.08
2018-08-28T22:07:54.352Z,25.17
2018-08-28T22:08:54.272Z,25.09
2018-08-28T22:10:49.558Z,25.13
2018-08-28T22:11:49.455Z,25.08
2018-08-28T22:13:44.732Z,25.05
2018-08-28T22:14:44.661Z,25.06
2018-08-28T22:16:39.963Z,24.93
2018-08-28T22:17:39.877Z,24.96
2018-08-28T22:19:38.734Z,24.87
2018-08-28T22:20:38.660Z,24.88
2018-08-28T22:21:38.580Z,24.90
2018-08-28T22:22:38.526Z,25.00
2018-08-28T22:23:38.464Z,24.99
2018-08-28T22:24:38.386Z,24.91
2018-08-28T22:25:38.328Z,25.02
2018-08-28T22:26:38.258Z,24.98
2018-08-28T22:27:38.212Z,25.03
2018-08-28T22:28:38.148Z,25.03
2018-08-28T22:29:38.083Z,24.95
2018-08-28T22:30:38.015Z,24.91
2018-08-28T22:31:37.963Z,24.93
2018-08-28T22:32:37.890Z,24.90
2018-08-28T22:33:37.827Z,24.85
2018-08-28T22:34:37.763Z,24.90
2018-08-28T22:35:37.701Z,24.88
2018-08-28T22:36:37.624Z,24.93
2018-08-28T22:37:37.560Z,24.85
2018-08-28T22:38:37.515Z,24.73
2018-08-28T22:39:37.451Z,24.77
2018-08-28T22:40:37.379Z,24.71
2018-08-28T22:41:37.313Z,24.62
2018-08-28T22:42:37.263Z,24.64
2018-08-28T22:43:37.187Z,24.67
2018-08-28T22:44:37.129Z,24.78
2018-08-28T22:45:37.069Z,24.77
2018-08-28T22:46:36.998Z,24.77
2018-08-28T22:47:36.936Z,24.81
2018-08-28T22:48:36.890Z,24.73
2018-08-28T22:49:36.825Z,24.83
2018-08-28T22:50:36.743Z,24.88
2018-08-28T22:51:36.673Z,24.81
2018-08-28T22:52:36.623Z,24.90
2018-08-28T22:53:36.561Z,24.90
2018-08-28T22:54:36.500Z,24.91
2018-08-28T22:55:36.416Z,24.93
2018-08-28T22:56:36.369Z,24.93
2018-08-28T22:57:36.305Z,24.90
2018-08-28T22:58:36.236Z,24.95
2018-08-28T22:59:36.175Z,25.00
2018-08-28T23:00:36.100Z,24.95
2018-08-28T23:01:36.045Z,24.98
2018-08-28T23:02:35.974Z,24.95
2018-08-28T23:03:35.928Z,24.98
2018-08-28T23:04:35.861Z,25.05
2018-08-28T23:05:35.792Z,25.10
2018-08-28T23:06:35.727Z,25.08
2018-08-28T23:07:35.663Z,25.09
2018-08-28T23:08:35.592Z,25.06
2018-08-28T23:09:35.550Z,25.05
2018-08-28T23:10:35.482Z,25.10
2018-08-28T23:11:35.413Z,25.03
2018-08-28T23:12:35.340Z,25.17
2018-08-28T23:13:35.286Z,25.24
2018-08-28T23:14:35.218Z,25.08
2018-08-28T23:15:35.165Z,25.10
2018-08-28T23:16:35.110Z,25.08
2018-08-28T23:17:35.053Z,24.96
2018-08-28T23:18:35.011Z,25.06
2018-08-28T23:19:34.905Z,25.08
2018-08-28T23:20:34.847Z,25.05
2018-08-28T23:21:34.790Z,25.10
2018-08-28T23:22:34.710Z,25.13
2018-08-28T23:23:34.648Z,25.21
2018-08-28T23:24:34.593Z,25.20
2018-08-28T23:25:34.525Z,25.25
2018-08-28T23:26:34.452Z,25.24
2018-08-28T23:27:34.395Z,25.25
2018-08-28T23:28:34.335Z,25.25
2018-08-28T23:29:34.279Z,25.28
2018-08-28T23:30:34.210Z,25.24
2018-08-28T23:31:34.145Z,25.25
2018-08-28T23:32:34.074Z,25.24
2018-08-28T23:33:34.030Z,25.30
2018-08-28T23:34:33.984Z,25.25
2018-08-28T23:35:33.890Z,25.32
2018-08-28T23:36:33.849Z,25.30
2018-08-28T23:37:33.758Z,25.32
2018-08-28T23:38:33.695Z,25.36
2018-08-28T23:39:33.636Z,25.28
2018-08-28T23:40:33.584Z,25.28
2018-08-28T23:41:33.521Z,25.35
2018-08-28T23:42:33.438Z,25.32
2018-08-28T23:43:33.382Z,25.30
2018-08-28T23:44:33.329Z,25.24
2018-08-28T23:45:33.269Z,25.18
2018-08-28T23:46:33.202Z,25.10
2018-08-28T23:47:33.135Z,25.08
2018-08-28T23:48:33.070Z,25.03
2018-08-28T23:49:33.010Z,25.06
2018-08-28T23:50:32.941Z,25.03
2018-08-28T23:51:32.882Z,25.00
2018-08-28T23:52:32.825Z,24.87
2018-08-28T23:53:32.759Z,24.85
2018-08-28T23:54:32.711Z,24.83
2018-08-28T23:55:32.687Z,24.87
2018-08-28T23:56:32.574Z,24.84
2018-08-28T23:57:32.495Z,24.95
2018-08-28T23:58:32.447Z,24.85
2018-08-28T23:59:32.385Z,24.87
